sensor_id;sensor_type;location;lat;lon;timestamp;pressure;altitude;pressure_sealevel;temperature;humidity
41078;BME280;26823;42.662;23.352;2022-10-16T00:01:46;95388.09;;;8.95;83.51
41078;BME280;26823;42.662;23.352;2022-10-16T00:04:11;95410.88;;;9.05;83.72
41078;BME280;26823;42.662;23.352;2022-10-16T00:06:43;95416.16;;;8.94;83.51
41078;BME280;26823;42.662;23.352;2022-10-16T00:09:09;95426.22;;;9.04;84.02
41078;BME280;26823;42.662;23.352;2022-10-16T00:11:37;95418.66;;;9.01;84.05
41078;BME280;26823;42.662;23.352;2022-10-16T00:14:08;95416.38;;;8.93;84.36
41078;BME280;26823;42.662;23.352;2022-10-16T00:16:33;95387.81;;;8.70;84.75
41078;BME280;26823;42.662;23.352;2022-10-16T00:18:59;95414.84;;;8.75;84.59
41078;BME280;26823;42.662;23.352;2022-10-16T00:21:27;95418.22;;;8.65;84.94
41078;BME280;26823;42.662;23.352;2022-10-16T00:23:56;95430.16;;;8.69;85.99
41078;BME280;26823;42.662;23.352;2022-10-16T00:26:22;95424.25;;;8.72;85.42
41078;BME280;26823;42.662;23.352;2022-10-16T00:28:49;95411.78;;;8.66;85.37
41078;BME280;26823;42.662;23.352;2022-10-16T00:31:16;95427.53;;;8.74;85.34
41078;BME280;26823;42.662;23.352;2022-10-16T00:33:42;95429.06;;;8.70;85.20
41078;BME280;26823;42.662;23.352;2022-10-16T00:36:11;95428.16;;;8.59;85.05
41078;BME280;26823;42.662;23.352;2022-10-16T00:38:37;95432.50;;;8.60;85.19
41078;BME280;26823;42.662;23.352;2022-10-16T00:41:03;95444.56;;;8.80;84.46
41078;BME280;26823;42.662;23.352;2022-10-16T00:43:49;95445.09;;;8.77;85.24
41078;BME280;26823;42.662;23.352;2022-10-16T00:46:17;95443.81;;;8.62;85.28
41078;BME280;26823;42.662;23.352;2022-10-16T00:49:00;95440.19;;;8.52;85.06
41078;BME280;26823;42.662;23.352;2022-10-16T00:51:38;95430.97;;;8.30;85.41
41078;BME280;26823;42.662;23.352;2022-10-16T00:54:09;95415.13;;;8.34;85.53
41078;BME280;26823;42.662;23.352;2022-10-16T00:56:35;95432.94;;;8.35;85.90
41078;BME280;26823;42.662;23.352;2022-10-16T00:59:03;95444.13;;;8.44;85.80
41078;BME280;26823;42.662;23.352;2022-10-16T01:01:31;95422.72;;;8.37;85.62
41078;BME280;26823;42.662;23.352;2022-10-16T01:03:56;95434.56;;;8.36;85.51
41078;BME280;26823;42.662;23.352;2022-10-16T01:12:17;95454.97;;;8.32;85.97
41078;BME280;26823;42.662;23.352;2022-10-16T01:14:58;95454.50;;;8.35;85.83
41078;BME280;26823;42.662;23.352;2022-10-16T01:17:35;95454.97;;;8.32;86.04
41078;BME280;26823;42.662;23.352;2022-10-16T01:20:29;95450.59;;;8.26;85.33
41078;BME280;26823;42.662;23.352;2022-10-16T01:28:16;95426.63;;;8.07;86.03
41078;BME280;26823;42.662;23.352;2022-10-16T01:30:47;95424.19;;;8.06;85.89
41078;BME280;26823;42.662;23.352;2022-10-16T01:33:35;95420.13;;;7.86;86.37
41078;BME280;26823;42.662;23.352;2022-10-16T01:36:08;95417.50;;;7.91;86.97
41078;BME280;26823;42.662;23.352;2022-10-16T01:38:38;95423.72;;;7.92;86.69
41078;BME280;26823;42.662;23.352;2022-10-16T01:41:15;95415.72;;;7.80;87.12
41078;BME280;26823;42.662;23.352;2022-10-16T01:43:46;95407.31;;;7.76;87.00
41078;BME280;26823;42.662;23.352;2022-10-16T01:46:21;95434.41;;;7.87;87.06
41078;BME280;26823;42.662;23.352;2022-10-16T01:48:51;95433.25;;;7.48;88.55
41078;BME280;26823;42.662;23.352;2022-10-16T01:51:18;95421.25;;;7.39;88.86
41078;BME280;26823;42.662;23.352;2022-10-16T01:53:48;95440.81;;;7.34;90.42
41078;BME280;26823;42.662;23.352;2022-10-16T01:56:17;95442.53;;;7.41;90.11
41078;BME280;26823;42.662;23.352;2022-10-16T01:58:51;95444.59;;;7.50;90.29
41078;BME280;26823;42.662;23.352;2022-10-16T02:01:21;95435.97;;;7.65;88.93
41078;BME280;26823;42.662;23.352;2022-10-16T02:03:51;95437.81;;;7.65;89.08
41078;BME280;26823;42.662;23.352;2022-10-16T02:06:18;95441.34;;;7.82;88.03
41078;BME280;26823;42.662;23.352;2022-10-16T02:08:43;95438.63;;;7.82;87.35
41078;BME280;26823;42.662;23.352;2022-10-16T02:11:10;95446.38;;;7.79;86.98
41078;BME280;26823;42.662;23.352;2022-10-16T02:13:39;95444.09;;;7.37;88.70
41078;BME280;26823;42.662;23.352;2022-10-16T02:16:08;95459.22;;;7.26;90.14
41078;BME280;26823;42.662;23.352;2022-10-16T02:18:34;95433.41;;;6.96;91.72
41078;BME280;26823;42.662;23.352;2022-10-16T02:21:04;95459.34;;;7.02;92.81
41078;BME280;26823;42.662;23.352;2022-10-16T02:24:08;95456.06;;;7.00;93.00
41078;BME280;26823;42.662;23.352;2022-10-16T02:26:36;95450.13;;;6.98;93.04
41078;BME280;26823;42.662;23.352;2022-10-16T02:29:10;95463.56;;;6.98;93.57
41078;BME280;26823;42.662;23.352;2022-10-16T02:31:41;95459.16;;;6.92;94.39
41078;BME280;26823;42.662;23.352;2022-10-16T02:34:10;95438.63;;;6.74;94.65
41078;BME280;26823;42.662;23.352;2022-10-16T02:36:38;95458.91;;;6.93;94.56
41078;BME280;26823;42.662;23.352;2022-10-16T02:39:05;95471.63;;;7.27;92.58
41078;BME280;26823;42.662;23.352;2022-10-16T02:41:31;95471.16;;;7.30;91.89
41078;BME280;26823;42.662;23.352;2022-10-16T02:43:57;95470.13;;;7.48;90.98
41078;BME280;26823;42.662;23.352;2022-10-16T02:46:22;95475.94;;;7.74;88.48
41078;BME280;26823;42.662;23.352;2022-10-16T02:48:48;95470.38;;;7.46;88.77
41078;BME280;26823;42.662;23.352;2022-10-16T02:51:13;95465.13;;;7.40;89.02
41078;BME280;26823;42.662;23.352;2022-10-16T02:53:39;95471.75;;;7.49;87.97
41078;BME280;26823;42.662;23.352;2022-10-16T02:56:04;95471.84;;;7.54;87.80
41078;BME280;26823;42.662;23.352;2022-10-16T02:58:29;95474.72;;;7.47;87.76
41078;BME280;26823;42.662;23.352;2022-10-16T03:00:55;95486.19;;;7.43;87.41
41078;BME280;26823;42.662;23.352;2022-10-16T03:03:21;95493.50;;;7.30;88.76
41078;BME280;26823;42.662;23.352;2022-10-16T03:05:46;95489.94;;;7.13;88.82
41078;BME280;26823;42.662;23.352;2022-10-16T03:08:12;95480.09;;;7.18;89.37
41078;BME280;26823;42.662;23.352;2022-10-16T03:10:38;95490.69;;;7.08;89.54
41078;BME280;26823;42.662;23.352;2022-10-16T03:13:03;95481.47;;;6.92;90.20
41078;BME280;26823;42.662;23.352;2022-10-16T03:15:29;95469.72;;;7.10;89.95
41078;BME280;26823;42.662;23.352;2022-10-16T03:17:57;95497.06;;;7.19;89.62
41078;BME280;26823;42.662;23.352;2022-10-16T03:20:23;95494.50;;;7.12;89.15
41078;BME280;26823;42.662;23.352;2022-10-16T03:22:49;95475.84;;;6.94;89.26
41078;BME280;26823;42.662;23.352;2022-10-16T03:25:14;95502.50;;;7.07;89.66
41078;BME280;26823;42.662;23.352;2022-10-16T03:27:40;95486.34;;;7.07;89.36
41078;BME280;26823;42.662;23.352;2022-10-16T03:30:05;95494.25;;;7.14;88.60
41078;BME280;26823;42.662;23.352;2022-10-16T03:32:31;95495.72;;;7.05;88.90
41078;BME280;26823;42.662;23.352;2022-10-16T03:34:56;95498.16;;;7.06;89.54
41078;BME280;26823;42.662;23.352;2022-10-16T03:37:22;95504.75;;;6.98;89.18
41078;BME280;26823;42.662;23.352;2022-10-16T03:39:47;95503.25;;;6.91;89.73
41078;BME280;26823;42.662;23.352;2022-10-16T03:42:13;95511.50;;;7.01;89.00
41078;BME280;26823;42.662;23.352;2022-10-16T03:44:38;95492.75;;;6.77;89.25
41078;BME280;26823;42.662;23.352;2022-10-16T03:47:03;95502.38;;;7.02;90.06
41078;BME280;26823;42.662;23.352;2022-10-16T03:49:29;95488.56;;;6.69;90.46
41078;BME280;26823;42.662;23.352;2022-10-16T03:51:55;95496.28;;;6.66;91.31
41078;BME280;26823;42.662;23.352;2022-10-16T03:54:20;95490.34;;;6.64;92.05
41078;BME280;26823;42.662;23.352;2022-10-16T03:56:47;95493.22;;;6.74;91.38
41078;BME280;26823;42.662;23.352;2022-10-16T03:59:12;95494.03;;;6.87;90.81
41078;BME280;26823;42.662;23.352;2022-10-16T04:01:38;95489.34;;;6.70;90.60
41078;BME280;26823;42.662;23.352;2022-10-16T04:04:03;95478.84;;;6.80;90.65
41078;BME280;26823;42.662;23.352;2022-10-16T04:06:29;95483.72;;;6.83;89.84
41078;BME280;26823;42.662;23.352;2022-10-16T04:08:54;95498.09;;;6.89;89.71
41078;BME280;26823;42.662;23.352;2022-10-16T04:11:19;95493.91;;;6.81;89.76
41078;BME280;26823;42.662;23.352;2022-10-16T04:13:45;95499.22;;;6.64;90.31
41078;BME280;26823;42.662;23.352;2022-10-16T04:16:10;95484.16;;;6.40;91.95
41078;BME280;26823;42.662;23.352;2022-10-16T04:18:36;95505.66;;;6.51;91.44
41078;BME280;26823;42.662;23.352;2022-10-16T04:21:03;95465.31;;;6.63;89.61
41078;BME280;26823;42.662;23.352;2022-10-16T04:23:28;95494.69;;;6.41;91.09
41078;BME280;26823;42.662;23.352;2022-10-16T04:25:54;95442.25;;;6.15;91.76
41078;BME280;26823;42.662;23.352;2022-10-16T04:28:19;95499.56;;;6.56;90.46
41078;BME280;26823;42.662;23.352;2022-10-16T04:30:48;95502.31;;;6.85;89.68
41078;BME280;26823;42.662;23.352;2022-10-16T04:33:13;95509.47;;;6.67;89.46
41078;BME280;26823;42.662;23.352;2022-10-16T04:35:38;95507.25;;;6.76;89.72
41078;BME280;26823;42.662;23.352;2022-10-16T04:38:04;95497.47;;;6.58;89.38
41078;BME280;26823;42.662;23.352;2022-10-16T04:40:30;95503.31;;;6.55;89.77
41078;BME280;26823;42.662;23.352;2022-10-16T04:42:58;95501.81;;;6.47;89.33
41078;BME280;26823;42.662;23.352;2022-10-16T04:45:24;95527.97;;;6.64;89.29
41078;BME280;26823;42.662;23.352;2022-10-16T04:47:50;95525.50;;;6.62;89.57
41078;BME280;26823;42.662;23.352;2022-10-16T04:50:15;95525.63;;;6.56;89.24
41078;BME280;26823;42.662;23.352;2022-10-16T04:52:41;95533.56;;;6.62;89.13
41078;BME280;26823;42.662;23.352;2022-10-16T04:55:06;95539.53;;;6.64;88.80
41078;BME280;26823;42.662;23.352;2022-10-16T04:57:39;95525.97;;;6.59;88.78
41078;BME280;26823;42.662;23.352;2022-10-16T05:00:06;95536.97;;;6.58;89.32
41078;BME280;26823;42.662;23.352;2022-10-16T05:02:33;95540.13;;;6.55;88.93
41078;BME280;26823;42.662;23.352;2022-10-16T05:04:58;95545.84;;;6.58;88.88
41078;BME280;26823;42.662;23.352;2022-10-16T05:07:23;95536.50;;;6.61;89.38
41078;BME280;26823;42.662;23.352;2022-10-16T05:09:49;95524.13;;;6.48;88.76
41078;BME280;26823;42.662;23.352;2022-10-16T05:12:14;95542.81;;;6.43;89.81
41078;BME280;26823;42.662;23.352;2022-10-16T05:14:40;95544.44;;;6.56;90.74
41078;BME280;26823;42.662;23.352;2022-10-16T05:17:05;95555.53;;;6.71;89.62
41078;BME280;26823;42.662;23.352;2022-10-16T05:19:34;95558.34;;;6.64;89.48
41078;BME280;26823;42.662;23.352;2022-10-16T05:21:59;95559.16;;;6.65;90.06
41078;BME280;26823;42.662;23.352;2022-10-16T05:24:25;95551.56;;;6.62;89.91
41078;BME280;26823;42.662;23.352;2022-10-16T05:26:50;95563.63;;;6.24;91.72
41078;BME280;26823;42.662;23.352;2022-10-16T05:29:16;95537.34;;;6.38;91.33
41078;BME280;26823;42.662;23.352;2022-10-16T05:31:42;95481.72;;;5.91;91.53
41078;BME280;26823;42.662;23.352;2022-10-16T05:34:07;95540.13;;;6.43;91.73
41078;BME280;26823;42.662;23.352;2022-10-16T05:36:32;95518.03;;;6.41;91.52
41078;BME280;26823;42.662;23.352;2022-10-16T05:38:58;95554.38;;;6.67;90.91
41078;BME280;26823;42.662;23.352;2022-10-16T05:41:23;95557.44;;;6.59;92.02
41078;BME280;26823;42.662;23.352;2022-10-16T05:43:51;95569.31;;;6.87;90.21
41078;BME280;26823;42.662;23.352;2022-10-16T05:46:17;95560.34;;;6.69;91.14
41078;BME280;26823;42.662;23.352;2022-10-16T05:48:43;95569.44;;;6.92;91.04
41078;BME280;26823;42.662;23.352;2022-10-16T05:51:12;95571.59;;;7.18;90.33
41078;BME280;26823;42.662;23.352;2022-10-16T05:53:39;95566.00;;;7.08;90.12
41078;BME280;26823;42.662;23.352;2022-10-16T05:56:06;95576.75;;;7.49;89.23
41078;BME280;26823;42.662;23.352;2022-10-16T05:58:36;95554.03;;;7.16;89.26
41078;BME280;26823;42.662;23.352;2022-10-16T06:01:05;95584.66;;;7.56;87.98
41078;BME280;26823;42.662;23.352;2022-10-16T06:03:32;95585.72;;;7.55;87.37
41078;BME280;26823;42.662;23.352;2022-10-16T06:05:58;95582.41;;;7.35;87.38
41078;BME280;26823;42.662;23.352;2022-10-16T06:08:23;95593.91;;;7.31;88.42
41078;BME280;26823;42.662;23.352;2022-10-16T06:11:03;95612.28;;;7.63;89.34
41078;BME280;26823;42.662;23.352;2022-10-16T06:13:29;95588.84;;;7.63;87.59
41078;BME280;26823;42.662;23.352;2022-10-16T06:15:56;95597.25;;;7.67;87.96
41078;BME280;26823;42.662;23.352;2022-10-16T06:18:22;95576.41;;;7.91;87.25
41078;BME280;26823;42.662;23.352;2022-10-16T06:20:47;95613.97;;;7.98;84.26
41078;BME280;26823;42.662;23.352;2022-10-16T06:23:16;95597.75;;;8.27;85.25
41078;BME280;26823;42.662;23.352;2022-10-16T06:25:48;95606.22;;;8.47;84.16
41078;BME280;26823;42.662;23.352;2022-10-16T06:28:20;95616.84;;;8.54;84.36
41078;BME280;26823;42.662;23.352;2022-10-16T06:30:45;95616.88;;;8.76;82.64
41078;BME280;26823;42.662;23.352;2022-10-16T06:33:11;95610.81;;;9.03;80.80
41078;BME280;26823;42.662;23.352;2022-10-16T06:35:46;95598.19;;;9.09;78.95
41078;BME280;26823;42.662;23.352;2022-10-16T06:38:11;95600.34;;;9.29;78.65
41078;BME280;26823;42.662;23.352;2022-10-16T06:40:37;95609.00;;;9.53;79.88
41078;BME280;26823;42.662;23.352;2022-10-16T06:43:02;95626.38;;;9.85;77.31
41078;BME280;26823;42.662;23.352;2022-10-16T06:45:27;95627.63;;;9.77;76.86
41078;BME280;26823;42.662;23.352;2022-10-16T06:47:53;95609.69;;;9.66;76.87
41078;BME280;26823;42.662;23.352;2022-10-16T06:50:18;95609.94;;;9.91;76.56
41078;BME280;26823;42.662;23.352;2022-10-16T06:52:44;95623.00;;;10.00;76.01
41078;BME280;26823;42.662;23.352;2022-10-16T06:55:09;95646.09;;;10.12;74.81
41078;BME280;26823;42.662;23.352;2022-10-16T06:57:35;95635.91;;;10.20;74.61
41078;BME280;26823;42.662;23.352;2022-10-16T07:00:00;95648.53;;;10.36;74.28
41078;BME280;26823;42.662;23.352;2022-10-16T07:02:26;95621.06;;;10.22;74.80
41078;BME280;26823;42.662;23.352;2022-10-16T07:04:51;95629.81;;;10.62;73.70
41078;BME280;26823;42.662;23.352;2022-10-16T07:07:17;95637.00;;;10.51;72.74
41078;BME280;26823;42.662;23.352;2022-10-16T07:09:42;95662.06;;;10.74;73.30
41078;BME280;26823;42.662;23.352;2022-10-16T07:12:08;95644.09;;;10.95;73.20
41078;BME280;26823;42.662;23.352;2022-10-16T07:14:33;95659.91;;;11.08;72.02
41078;BME280;26823;42.662;23.352;2022-10-16T07:16:59;95661.56;;;11.15;71.70
41078;BME280;26823;42.662;23.352;2022-10-16T07:19:24;95618.13;;;10.99;70.20
41078;BME280;26823;42.662;23.352;2022-10-16T07:21:52;95667.97;;;11.46;70.93
41078;BME280;26823;42.662;23.352;2022-10-16T07:24:17;95661.81;;;11.66;68.93
41078;BME280;26823;42.662;23.352;2022-10-16T07:26:44;95668.66;;;11.84;68.17
41078;BME280;26823;42.662;23.352;2022-10-16T07:29:17;95649.19;;;11.93;67.45
41078;BME280;26823;42.662;23.352;2022-10-16T07:31:43;95640.88;;;12.15;66.41
41078;BME280;26823;42.662;23.352;2022-10-16T07:34:09;95672.13;;;12.48;65.77
41078;BME280;26823;42.662;23.352;2022-10-16T07:36:35;95659.56;;;12.06;66.09
41078;BME280;26823;42.662;23.352;2022-10-16T07:39:01;95630.84;;;12.26;65.82
41078;BME280;26823;42.662;23.352;2022-10-16T07:41:27;95671.56;;;13.18;64.11
41078;BME280;26823;42.662;23.352;2022-10-16T07:43:53;95662.28;;;13.30;62.01
41078;BME280;26823;42.662;23.352;2022-10-16T07:46:21;95661.78;;;13.38;62.08
41078;BME280;26823;42.662;23.352;2022-10-16T07:48:46;95667.41;;;13.62;63.72
41078;BME280;26823;42.662;23.352;2022-10-16T07:51:17;95677.63;;;13.91;60.87
41078;BME280;26823;42.662;23.352;2022-10-16T07:53:43;95674.84;;;14.07;59.85
41078;BME280;26823;42.662;23.352;2022-10-16T07:56:09;95637.75;;;14.21;58.78
41078;BME280;26823;42.662;23.352;2022-10-16T07:58:35;95664.25;;;14.50;57.37
41078;BME280;26823;42.662;23.352;2022-10-16T08:01:07;95669.34;;;14.62;57.76
41078;BME280;26823;42.662;23.352;2022-10-16T08:03:33;95671.91;;;14.48;58.24
41078;BME280;26823;42.662;23.352;2022-10-16T08:05:59;95654.09;;;14.16;58.22
41078;BME280;26823;42.662;23.352;2022-10-16T08:08:26;95684.22;;;14.30;58.36
41078;BME280;26823;42.662;23.352;2022-10-16T08:10:52;95652.59;;;14.44;61.89
41078;BME280;26823;42.662;23.352;2022-10-16T08:13:17;95653.88;;;14.92;57.15
41078;BME280;26823;42.662;23.352;2022-10-16T08:15:43;95681.81;;;15.08;55.54
41078;BME280;26823;42.662;23.352;2022-10-16T08:18:10;95651.28;;;15.64;54.80
41078;BME280;26823;42.662;23.352;2022-10-16T08:20:36;95668.34;;;17.28;50.43
41078;BME280;26823;42.662;23.352;2022-10-16T08:23:02;95665.19;;;17.21;48.64
41078;BME280;26823;42.662;23.352;2022-10-16T08:25:28;95659.38;;;17.55;47.57
41078;BME280;26823;42.662;23.352;2022-10-16T08:27:54;95658.03;;;17.53;47.22
41078;BME280;26823;42.662;23.352;2022-10-16T08:30:21;95645.00;;;17.91;45.12
41078;BME280;26823;42.662;23.352;2022-10-16T08:32:47;95670.59;;;19.11;42.95
41078;BME280;26823;42.662;23.352;2022-10-16T08:35:15;95656.16;;;19.59;40.48
41078;BME280;26823;42.662;23.352;2022-10-16T08:37:42;95665.84;;;20.81;39.92
41078;BME280;26823;42.662;23.352;2022-10-16T08:40:17;95663.03;;;21.42;37.44
41078;BME280;26823;42.662;23.352;2022-10-16T08:48:45;95677.16;;;21.32;38.68
41078;BME280;26823;42.662;23.352;2022-10-16T08:51:22;95674.56;;;20.57;37.59
41078;BME280;26823;42.662;23.352;2022-10-16T08:53:54;95655.28;;;20.30;38.46
41078;BME280;26823;42.662;23.352;2022-10-16T08:56:21;95652.00;;;19.70;39.97
41078;BME280;26823;42.662;23.352;2022-10-16T08:58:47;95654.19;;;18.97;40.51
41078;BME280;26823;42.662;23.352;2022-10-16T09:01:16;95684.63;;;18.72;40.89
41078;BME280;26823;42.662;23.352;2022-10-16T09:09:35;95674.44;;;19.32;38.88
41078;BME280;26823;42.662;23.352;2022-10-16T09:15:29;95676.16;;;20.40;36.32
41078;BME280;26823;42.662;23.352;2022-10-16T09:18:07;95678.50;;;19.12;36.57
41078;BME280;26823;42.662;23.352;2022-10-16T09:25:31;95666.19;;;19.32;37.67
41078;BME280;26823;42.662;23.352;2022-10-16T09:27:57;95642.34;;;18.28;39.01
41078;BME280;26823;42.662;23.352;2022-10-16T09:30:27;95649.69;;;19.23;38.01
41078;BME280;26823;42.662;23.352;2022-10-16T09:32:53;95673.47;;;19.68;35.83
41078;BME280;26823;42.662;23.352;2022-10-16T09:35:21;95661.00;;;19.94;35.34
41078;BME280;26823;42.662;23.352;2022-10-16T09:37:54;95653.91;;;20.94;32.38
41078;BME280;26823;42.662;23.352;2022-10-16T09:40:26;95660.19;;;22.16;30.85
41078;BME280;26823;42.662;23.352;2022-10-16T09:43:07;95658.94;;;22.86;29.39
41078;BME280;26823;42.662;23.352;2022-10-16T09:45:35;95657.94;;;21.79;30.87
41078;BME280;26823;42.662;23.352;2022-10-16T09:48:10;95665.84;;;22.71;28.88
41078;BME280;26823;42.662;23.352;2022-10-16T09:50:36;95643.56;;;21.74;30.88
41078;BME280;26823;42.662;23.352;2022-10-16T09:53:12;95635.81;;;21.58;31.47
41078;BME280;26823;42.662;23.352;2022-10-16T09:55:50;95643.91;;;23.17;30.08
41078;BME280;26823;42.662;23.352;2022-10-16T09:58:17;95658.22;;;23.10;29.50
41078;BME280;26823;42.662;23.352;2022-10-16T10:00:49;95646.75;;;21.76;31.08
41078;BME280;26823;42.662;23.352;2022-10-16T10:03:33;95632.38;;;21.70;31.76
41078;BME280;26823;42.662;23.352;2022-10-16T10:06:06;95637.38;;;21.77;31.24
41078;BME280;26823;42.662;23.352;2022-10-16T10:08:32;95632.69;;;21.12;31.63
41078;BME280;26823;42.662;23.352;2022-10-16T10:10:58;95635.91;;;21.79;30.53
41078;BME280;26823;42.662;23.352;2022-10-16T10:13:24;95638.03;;;20.82;32.60
41078;BME280;26823;42.662;23.352;2022-10-16T10:15:52;95633.94;;;20.10;32.59
41078;BME280;26823;42.662;23.352;2022-10-16T10:18:20;95634.84;;;19.96;33.84
41078;BME280;26823;42.662;23.352;2022-10-16T10:21:00;95634.13;;;20.31;33.59
41078;BME280;26823;42.662;23.352;2022-10-16T10:23:27;95626.41;;;20.94;33.58
41078;BME280;26823;42.662;23.352;2022-10-16T10:31:34;95628.09;;;18.99;34.07
41078;BME280;26823;42.662;23.352;2022-10-16T10:36:36;95626.22;;;19.40;33.58
41078;BME280;26823;42.662;23.352;2022-10-16T10:39:15;95616.38;;;20.81;32.59
41078;BME280;26823;42.662;23.352;2022-10-16T10:52:51;95608.13;;;20.81;31.60
41078;BME280;26823;42.662;23.352;2022-10-16T10:55:43;95612.00;;;20.97;31.87
41078;BME280;26823;42.662;23.352;2022-10-16T10:58:35;95605.31;;;21.25;30.33
41078;BME280;26823;42.662;23.352;2022-10-16T11:01:14;95586.47;;;20.71;33.07
41078;BME280;26823;42.662;23.352;2022-10-16T11:06:46;95566.91;;;20.28;32.10
41078;BME280;26823;42.662;23.352;2022-10-16T11:09:23;95587.88;;;21.12;32.91
41078;BME280;26823;42.662;23.352;2022-10-16T11:17:22;95572.22;;;19.98;30.68
41078;BME280;26823;42.662;23.352;2022-10-16T11:19:58;95583.41;;;20.46;29.81
41078;BME280;26823;42.662;23.352;2022-10-16T11:22:50;95590.78;;;19.93;30.06
41078;BME280;26823;42.662;23.352;2022-10-16T11:25:31;95581.91;;;20.04;30.13
41078;BME280;26823;42.662;23.352;2022-10-16T11:33:48;95577.44;;;19.77;31.25
41078;BME280;26823;42.662;23.352;2022-10-16T11:39:33;95550.56;;;19.48;30.33
41078;BME280;26823;42.662;23.352;2022-10-16T11:47:42;95579.25;;;19.82;30.70
41078;BME280;26823;42.662;23.352;2022-10-16T11:50:26;95582.72;;;20.14;30.99
41078;BME280;26823;42.662;23.352;2022-10-16T11:53:18;95574.31;;;20.10;30.14
41078;BME280;26823;42.662;23.352;2022-10-16T11:55:47;95554.94;;;19.09;32.53
41078;BME280;26823;42.662;23.352;2022-10-16T12:08:48;95574.16;;;20.07;33.48
41078;BME280;26823;42.662;23.352;2022-10-16T12:11:34;95574.81;;;20.12;36.21
41078;BME280;26823;42.662;23.352;2022-10-16T12:19:42;95553.41;;;21.53;31.02
41078;BME280;26823;42.662;23.352;2022-10-16T12:22:17;95577.94;;;21.76;30.84
41078;BME280;26823;42.662;23.352;2022-10-16T12:24:43;95586.16;;;21.46;30.34
41078;BME280;26823;42.662;23.352;2022-10-16T12:29:59;95559.44;;;21.46;31.71
41078;BME280;26823;42.662;23.352;2022-10-16T12:32:44;95579.25;;;22.51;30.42
41078;BME280;26823;42.662;23.352;2022-10-16T12:35:21;95535.53;;;20.47;30.84
41078;BME280;26823;42.662;23.352;2022-10-16T12:37:47;95573.38;;;20.24;31.29
41078;BME280;26823;42.662;23.352;2022-10-16T12:40:14;95581.03;;;19.78;31.59
41078;BME280;26823;42.662;23.352;2022-10-16T12:42:46;95544.94;;;20.28;31.14
41078;BME280;26823;42.662;23.352;2022-10-16T12:45:32;95575.47;;;20.62;32.04
41078;BME280;26823;42.662;23.352;2022-10-16T12:48:04;95581.47;;;21.38;29.81
41078;BME280;26823;42.662;23.352;2022-10-16T12:50:31;95580.28;;;21.09;30.11
41078;BME280;26823;42.662;23.352;2022-10-16T12:53:17;95570.63;;;20.50;30.67
41078;BME280;26823;42.662;23.352;2022-10-16T13:04:03;95587.59;;;20.26;31.69
41078;BME280;26823;42.662;23.352;2022-10-16T13:06:51;95589.88;;;20.76;31.22
41078;BME280;26823;42.662;23.352;2022-10-16T13:09:23;95595.22;;;20.90;30.27
41078;BME280;26823;42.662;23.352;2022-10-16T13:12:08;95589.53;;;20.60;31.57
41078;BME280;26823;42.662;23.352;2022-10-16T13:17:45;95579.16;;;20.66;31.69
41078;BME280;26823;42.662;23.352;2022-10-16T13:28:35;95580.00;;;21.40;29.48
41078;BME280;26823;42.662;23.352;2022-10-16T13:31:03;95582.75;;;20.31;30.42
41078;BME280;26823;42.662;23.352;2022-10-16T13:33:45;95583.22;;;20.16;31.54
41078;BME280;26823;42.662;23.352;2022-10-16T13:36:23;95574.16;;;19.98;31.93
41078;BME280;26823;42.662;23.352;2022-10-16T13:41:45;95595.00;;;19.59;33.27
41078;BME280;26823;42.662;23.352;2022-10-16T13:44:17;95599.09;;;19.70;33.06
41078;BME280;26823;42.662;23.352;2022-10-16T13:46:44;95577.59;;;19.72;32.75
41078;BME280;26823;42.662;23.352;2022-10-16T13:49:15;95586.09;;;19.93;33.53
41078;BME280;26823;42.662;23.352;2022-10-16T13:51:41;95593.44;;;19.75;34.30
41078;BME280;26823;42.662;23.352;2022-10-16T13:54:10;95581.63;;;19.75;33.39
41078;BME280;26823;42.662;23.352;2022-10-16T13:56:38;95593.06;;;20.08;35.50
41078;BME280;26823;42.662;23.352;2022-10-16T13:59:06;95600.28;;;19.86;34.35
41078;BME280;26823;42.662;23.352;2022-10-16T14:01:45;95576.91;;;19.98;33.73
41078;BME280;26823;42.662;23.352;2022-10-16T14:04:12;95598.09;;;20.24;34.48
41078;BME280;26823;42.662;23.352;2022-10-16T14:06:46;95596.13;;;20.24;32.86
41078;BME280;26823;42.662;23.352;2022-10-16T14:09:21;95609.09;;;19.75;33.40
41078;BME280;26823;42.662;23.352;2022-10-16T14:14:21;95576.63;;;18.96;33.91
41078;BME280;26823;42.662;23.352;2022-10-16T14:16:47;95607.16;;;19.03;34.14
41078;BME280;26823;42.662;23.352;2022-10-16T14:19:26;95596.03;;;18.86;34.13
41078;BME280;26823;42.662;23.352;2022-10-16T14:21:52;95602.84;;;18.88;34.27
41078;BME280;26823;42.662;23.352;2022-10-16T14:24:44;95609.28;;;19.06;34.19
41078;BME280;26823;42.662;23.352;2022-10-16T14:27:33;95614.63;;;18.66;34.18
41078;BME280;26823;42.662;23.352;2022-10-16T14:30:14;95623.50;;;18.49;34.96
41078;BME280;26823;42.662;23.352;2022-10-16T14:32:42;95608.78;;;18.22;34.53
41078;BME280;26823;42.662;23.352;2022-10-16T14:37:59;95585.59;;;17.78;35.11
41078;BME280;26823;42.662;23.352;2022-10-16T14:40:36;95626.44;;;17.74;35.46
41078;BME280;26823;42.662;23.352;2022-10-16T14:43:03;95607.00;;;17.62;35.51
41078;BME280;26823;42.662;23.352;2022-10-16T14:45:32;95632.53;;;17.57;35.71
41078;BME280;26823;42.662;23.352;2022-10-16T14:48:01;95607.41;;;17.41;37.07
41078;BME280;26823;42.662;23.352;2022-10-16T14:50:28;95621.06;;;17.41;36.83
41078;BME280;26823;42.662;23.352;2022-10-16T14:52:54;95594.13;;;16.88;36.59
41078;BME280;26823;42.662;23.352;2022-10-16T14:55:20;95593.47;;;16.77;37.65
41078;BME280;26823;42.662;23.352;2022-10-16T14:57:46;95636.16;;;16.92;37.45
41078;BME280;26823;42.662;23.352;2022-10-16T15:00:18;95627.81;;;16.83;37.63
41078;BME280;26823;42.662;23.352;2022-10-16T15:02:46;95634.16;;;16.98;37.26
41078;BME280;26823;42.662;23.352;2022-10-16T15:05:26;95638.50;;;16.79;37.61
41078;BME280;26823;42.662;23.352;2022-10-16T15:07:53;95638.09;;;16.72;38.12